Home   Weather   Denmark   Randers   Past weeks
Flag for Denmark

Past Weather in Randers, Denmark — Yesterday and Last 2 Weeks

Currently: 55 °F. Clear. (Weather station: Tirstrup, Denmark). See more current weather

Past Weather in Randers — Graph

°F

Randers Temperature Yesterday

Maximum temperature yesterday: 73 °F (at 1:50 pm)
Minimum temperature yesterday: 50 °F (at 1:50 am)
Average temperature yesterday: 63 °F

High & Low Weather Summary for the Past Weeks

 TemperatureHumidityPressure
High73 °F (May 15, 3:50 pm)94% (May 6, 4:50 am)30.33 "Hg (May 6, 4:50 am)
Low41 °F (May 8, 1:20 am)30% (May 13, 4:20 pm)29.65 "Hg (May 6, 4:50 am)
Average59 °F63%30.09 "Hg
* Reported May 6 4:50 am — May 21 4:20 am, Randers. Weather by CustomWeather, © 2024

Note: Actual official high and low records may vary slightly from our data, if they occured in-between our weather recording intervals... More about our weather records

Randers Weather History for the Previous 24 Hours

Scroll right to see more
 ConditionsComfort  
Time TempWeatherWind HumidityBarometerVisibility
4:20 am
Tue, May 21
55 °FClear.5 mph88%30.07 "HgN/A
3:20 am59 °FClear.5 mph77%30.07 "HgN/A
2:50 am59 °FClear.6 mph77%30.07 "HgN/A
1:50 am61 °FClear.6 mph68%30.07 "HgN/A
1:20 am61 °FClear.7 mph68%30.07 "HgN/A
12:50 am61 °FClear.7 mph68%30.07 "HgN/A
12:20 am61 °FClear.6 mph72%30.07 "HgN/A
11:50 pm
Mon, May 20
61 °FClear.5 mph83%30.04 "HgN/A
11:20 pm61 °FClear.5 mph77%30.04 "HgN/A
10:50 pm63 °FPassing clouds.3 mph73%30.04 "HgN/A
10:20 pm63 °FPassing clouds.5 mph73%30.04 "HgN/A
9:50 pm63 °FPassing clouds.6 mph73%30.04 "HgN/A
9:20 pm64 °FPassing clouds.6 mph68%30.01 "HgN/A
8:50 pm66 °FClear.7 mph64%30.01 "HgN/A
8:20 pm68 °FClear.9 mph60%30.01 "HgN/A
7:50 pm70 °FClear.12 mph53%30.01 "HgN/A
7:20 pm70 °FClear.12 mph53%29.98 "HgN/A
6:50 pm72 °FClear.13 mph47%29.98 "HgN/A
5:50 pm73 °FClear.13 mph44%29.98 "HgN/A
5:20 pm73 °FClear.13 mph44%29.98 "HgN/A
4:50 pm73 °FClear.12 mph44%29.98 "HgN/A
4:20 pm73 °FClear.9 mph41%29.98 "HgN/A
3:50 pm73 °FClear.8 mph41%29.98 "HgN/A
3:20 pm73 °FClear.12 mph41%29.98 "HgN/A
2:50 pm73 °FClear.10 mph38%29.98 "HgN/A
1:50 pm73 °FClear.9 mph41%29.98 "HgN/A
1:20 pm72 °FClear.12 mph47%29.98 "HgN/A
12:50 pm72 °FClear.8 mph47%29.98 "HgN/A
12:20 pm72 °FClear.8 mph50%29.98 "HgN/A
11:50 am72 °FClear.8 mph47%29.98 "HgN/A
11:20 am68 °FClear.9 mph60%29.95 "HgN/A
10:50 am70 °FClear.10 mph53%29.95 "HgN/A
9:50 am68 °FPassing clouds.6 mph60%29.92 "HgN/A
8:50 am66 °FPassing clouds.5 mph64%29.92 "HgN/A
8:20 am63 °FPassing clouds.5 mph73%29.92 "HgN/A
7:50 am61 °FScattered clouds.2 mph72%29.92 "HgN/A
7:20 am59 °FPassing clouds.5 mph72%29.92 "HgN/A
6:50 am55 °FPassing clouds.2 mph82%29.92 "HgN/A
6:20 am54 °FScattered clouds.2 mph82%29.92 "HgN/A
5:50 am52 °FPartly sunny.3 mph88%29.89 "HgN/A
5:20 am50 °FScattered clouds.3 mph88%29.89 "HgN/A
Weather by CustomWeather, © 2024

See weather overview